Princeton, Iowa
Current Conditions -  °F | °C
As of 11:35 AM on Monday 24 Nov 2014 (Local Time) from KCWI Reporting Station
Overcast Overcast  
Wind Chill: 13°   Ceiling: 1100
Heat Index: 28°   Visibility: 3mi
Dew Point: 21°   Wind: 30mph
Humidity: 74%   Direction: 280°W
Pressure: 29.45"   Gusts: 36mph
Location:  41.68°N, 90.34°W
Report Text: KCWI 241735Z AUTO 28026G31KT 3SM OVC011 M02/M06 A2945 RMK AO1
Loading
Personal Weather Stations






























Interactive Weather Map New forecast layout! Learn more

10-Day Weather Forecast

Advertisements
Track Severe Weather on mobile